sensor_id;sensor_type;location;lat;lon;timestamp;pressure;altitude;pressure_sealevel;temperature;humidity
76819;BME280;65772;51.096;17.006;2023-05-28T00:00:20;100823.75;;;17.04;35.61
76819;BME280;65772;51.096;17.006;2023-05-28T00:02:51;100823.20;;;17.02;35.54
76819;BME280;65772;51.096;17.006;2023-05-28T00:05:21;100821.13;;;17.01;35.55
76819;BME280;65772;51.096;17.006;2023-05-28T00:07:52;100818.33;;;16.99;35.64
76819;BME280;65772;51.096;17.006;2023-05-28T00:10:22;100814.86;;;16.97;35.60
76819;BME280;65772;51.096;17.006;2023-05-28T00:12:53;100815.88;;;16.94;35.65
76819;BME280;65772;51.096;17.006;2023-05-28T00:15:23;100817.58;;;16.92;35.81
76819;BME280;65772;51.096;17.006;2023-05-28T00:17:54;100817.55;;;16.90;35.64
76819;BME280;65772;51.096;17.006;2023-05-28T00:20:26;100815.61;;;16.87;35.68
76819;BME280;65772;51.096;17.006;2023-05-28T00:22:56;100809.22;;;16.85;35.66
76819;BME280;65772;51.096;17.006;2023-05-28T00:25:27;100808.88;;;16.83;35.61
76819;BME280;65772;51.096;17.006;2023-05-28T00:27:57;100807.63;;;16.81;35.80
76819;BME280;65772;51.096;17.006;2023-05-28T00:30:28;100807.23;;;16.77;35.73
76819;BME280;65772;51.096;17.006;2023-05-28T00:32:59;100808.42;;;16.75;35.83
76819;BME280;65772;51.096;17.006;2023-05-28T00:35:30;100807.54;;;16.73;35.73
76819;BME280;65772;51.096;17.006;2023-05-28T00:38:00;100807.02;;;16.72;35.71
76819;BME280;65772;51.096;17.006;2023-05-28T00:40:31;100800.95;;;16.69;35.65
76819;BME280;65772;51.096;17.006;2023-05-28T00:43:01;100802.82;;;16.68;35.80
76819;BME280;65772;51.096;17.006;2023-05-28T00:45:32;100803.31;;;16.67;35.81
76819;BME280;65772;51.096;17.006;2023-05-28T00:48:03;100804.48;;;16.65;35.89
76819;BME280;65772;51.096;17.006;2023-05-28T00:50:34;100798.78;;;16.63;35.79
76819;BME280;65772;51.096;17.006;2023-05-28T00:53:05;100795.67;;;16.61;36.02
76819;BME280;65772;51.096;17.006;2023-05-28T00:55:36;100796.50;;;16.61;36.17
76819;BME280;65772;51.096;17.006;2023-05-28T00:58:07;100793.39;;;16.60;36.00
76819;BME280;65772;51.096;17.006;2023-05-28T01:00:38;100791.82;;;16.59;35.94
76819;BME280;65772;51.096;17.006;2023-05-28T01:03:12;100787.66;;;16.57;35.94
76819;BME280;65772;51.096;17.006;2023-05-28T01:05:42;100786.42;;;16.56;36.02
76819;BME280;65772;51.096;17.006;2023-05-28T01:08:13;100782.45;;;16.54;35.94
76819;BME280;65772;51.096;17.006;2023-05-28T01:10:45;100779.33;;;16.52;35.96
76819;BME280;65772;51.096;17.006;2023-05-28T01:13:17;100776.55;;;16.49;35.93
76819;BME280;65772;51.096;17.006;2023-05-28T01:15:49;100775.64;;;16.47;36.00
76819;BME280;65772;51.096;17.006;2023-05-28T01:18:21;100776.14;;;16.46;35.93
76819;BME280;65772;51.096;17.006;2023-05-28T01:20:51;100774.39;;;16.44;35.97
76819;BME280;65772;51.096;17.006;2023-05-28T01:23:25;100772.99;;;16.42;35.89
76819;BME280;65772;51.096;17.006;2023-05-28T01:26:00;100768.83;;;16.39;35.93
76819;BME280;65772;51.096;17.006;2023-05-28T01:28:29;100767.93;;;16.37;36.02
76819;BME280;65772;51.096;17.006;2023-05-28T01:31:00;100765.11;;;16.32;36.13
76819;BME280;65772;51.096;17.006;2023-05-28T01:33:31;100763.89;;;16.30;36.11
76819;BME280;65772;51.096;17.006;2023-05-28T01:36:05;100767.13;;;16.28;36.23
76819;BME280;65772;51.096;17.006;2023-05-28T01:38:37;100769.67;;;16.25;36.20
76819;BME280;65772;51.096;17.006;2023-05-28T01:41:09;100772.40;;;16.23;36.33
76819;BME280;65772;51.096;17.006;2023-05-28T01:43:39;100772.03;;;16.20;36.38
76819;BME280;65772;51.096;17.006;2023-05-28T01:46:11;100769.54;;;16.15;36.39
76819;BME280;65772;51.096;17.006;2023-05-28T01:48:42;100766.58;;;16.12;36.43
76819;BME280;65772;51.096;17.006;2023-05-28T01:51:16;100761.55;;;16.10;36.50
76819;BME280;65772;51.096;17.006;2023-05-28T01:53:47;100761.73;;;16.09;36.48
76819;BME280;65772;51.096;17.006;2023-05-28T01:56:18;100762.22;;;16.07;36.56
76819;BME280;65772;51.096;17.006;2023-05-28T01:58:49;100762.88;;;16.06;36.62
76819;BME280;65772;51.096;17.006;2023-05-28T02:01:27;100758.21;;;16.05;36.63
76819;BME280;65772;51.096;17.006;2023-05-28T02:03:57;100757.82;;;16.02;36.65
76819;BME280;65772;51.096;17.006;2023-05-28T02:06:29;100759.69;;;15.99;36.64
76819;BME280;65772;51.096;17.006;2023-05-28T02:09:00;100757.43;;;15.97;36.68
76819;BME280;65772;51.096;17.006;2023-05-28T02:11:31;100750.86;;;15.96;36.68
76819;BME280;65772;51.096;17.006;2023-05-28T02:14:01;100751.35;;;15.94;36.59
76819;BME280;65772;51.096;17.006;2023-05-28T02:16:33;100750.98;;;15.93;36.76
76819;BME280;65772;51.096;17.006;2023-05-28T02:19:04;100749.55;;;15.90;36.87
76819;BME280;65772;51.096;17.006;2023-05-28T02:21:35;100750.73;;;15.87;36.91
76819;BME280;65772;51.096;17.006;2023-05-28T02:24:06;100748.74;;;15.81;37.05
76819;BME280;65772;51.096;17.006;2023-05-28T02:26:37;100752.48;;;15.78;37.09
76819;BME280;65772;51.096;17.006;2023-05-28T02:29:07;100751.05;;;15.73;37.24
76819;BME280;65772;51.096;17.006;2023-05-28T02:31:38;100749.42;;;15.68;37.37
76819;BME280;65772;51.096;17.006;2023-05-28T02:34:08;100748.84;;;15.64;37.38
76819;BME280;65772;51.096;17.006;2023-05-28T02:36:39;100752.19;;;15.58;37.57
76819;BME280;65772;51.096;17.006;2023-05-28T02:39:09;100755.02;;;15.52;37.86
76819;BME280;65772;51.096;17.006;2023-05-28T02:41:40;100756.64;;;15.48;37.85
76819;BME280;65772;51.096;17.006;2023-05-28T02:44:11;100759.54;;;15.45;38.00
76819;BME280;65772;51.096;17.006;2023-05-28T02:46:41;100758.42;;;15.41;38.05
76819;BME280;65772;51.096;17.006;2023-05-28T02:49:12;100754.41;;;15.37;38.25
76819;BME280;65772;51.096;17.006;2023-05-28T02:51:42;100758.64;;;15.32;38.28
76819;BME280;65772;51.096;17.006;2023-05-28T02:54:35;100760.09;;;15.27;38.49
76819;BME280;65772;51.096;17.006;2023-05-28T02:57:06;100763.48;;;15.24;38.51
76819;BME280;65772;51.096;17.006;2023-05-28T02:59:37;100761.36;;;15.20;38.82
76819;BME280;65772;51.096;17.006;2023-05-28T03:02:08;100761.63;;;15.17;38.74
76819;BME280;65772;51.096;17.006;2023-05-28T03:04:39;100762.64;;;15.15;38.98
76819;BME280;65772;51.096;17.006;2023-05-28T03:07:09;100763.95;;;15.12;38.88
76819;BME280;65772;51.096;17.006;2023-05-28T03:09:40;100762.88;;;15.10;38.98
76819;BME280;65772;51.096;17.006;2023-05-28T03:12:11;100762.84;;;15.08;39.25
76819;BME280;65772;51.096;17.006;2023-05-28T03:14:42;100773.98;;;15.06;39.32
76819;BME280;65772;51.096;17.006;2023-05-28T03:17:12;100774.64;;;15.04;39.29
76819;BME280;65772;51.096;17.006;2023-05-28T03:19:43;100775.98;;;15.01;39.28
76819;BME280;65772;51.096;17.006;2023-05-28T03:22:14;100779.05;;;15.00;39.30
76819;BME280;65772;51.096;17.006;2023-05-28T03:24:46;100779.30;;;14.96;39.53
76819;BME280;65772;51.096;17.006;2023-05-28T03:27:19;100776.83;;;14.91;39.79
76819;BME280;65772;51.096;17.006;2023-05-28T03:29:49;100772.60;;;14.87;40.11
76819;BME280;65772;51.096;17.006;2023-05-28T03:32:25;100773.92;;;14.84;39.95
76819;BME280;65772;51.096;17.006;2023-05-28T03:34:55;100769.77;;;14.81;40.06
76819;BME280;65772;51.096;17.006;2023-05-28T03:37:30;100769.69;;;14.78;40.07
76819;BME280;65772;51.096;17.006;2023-05-28T03:40:01;100770.15;;;14.76;40.78
76819;BME280;65772;51.096;17.006;2023-05-28T03:42:33;100773.18;;;14.72;40.70
76819;BME280;65772;51.096;17.006;2023-05-28T03:45:06;100769.69;;;14.69;40.70
76819;BME280;65772;51.096;17.006;2023-05-28T03:47:37;100773.90;;;14.65;40.96
76819;BME280;65772;51.096;17.006;2023-05-28T03:50:10;100778.31;;;14.61;41.18
76819;BME280;65772;51.096;17.006;2023-05-28T03:52:41;100778.95;;;14.59;41.22
76819;BME280;65772;51.096;17.006;2023-05-28T03:55:12;100775.11;;;14.56;41.03
76819;BME280;65772;51.096;17.006;2023-05-28T03:57:43;100778.35;;;14.55;41.13
76819;BME280;65772;51.096;17.006;2023-05-28T04:00:16;100776.07;;;14.53;41.28
76819;BME280;65772;51.096;17.006;2023-05-28T04:02:46;100774.16;;;14.52;41.50
76819;BME280;65772;51.096;17.006;2023-05-28T04:05:17;100774.33;;;14.52;41.29
76819;BME280;65772;51.096;17.006;2023-05-28T04:07:50;100771.58;;;14.51;41.24
76819;BME280;65772;51.096;17.006;2023-05-28T04:10:20;100773.30;;;14.52;41.42
76819;BME280;65772;51.096;17.006;2023-05-28T04:12:51;100773.81;;;14.52;41.27
76819;BME280;65772;51.096;17.006;2023-05-28T04:15:24;100773.83;;;14.53;41.23
76819;BME280;65772;51.096;17.006;2023-05-28T04:17:54;100775.92;;;14.54;41.33
76819;BME280;65772;51.096;17.006;2023-05-28T04:20:25;100772.14;;;14.54;41.58
76819;BME280;65772;51.096;17.006;2023-05-28T04:22:56;100769.95;;;14.56;41.20
76819;BME280;65772;51.096;17.006;2023-05-28T04:25:26;100769.45;;;14.56;41.24
76819;BME280;65772;51.096;17.006;2023-05-28T04:27:59;100772.58;;;14.58;41.28
76819;BME280;65772;51.096;17.006;2023-05-28T04:30:31;100770.52;;;14.58;41.60
76819;BME280;65772;51.096;17.006;2023-05-28T04:33:02;100772.89;;;14.57;41.59
76819;BME280;65772;51.096;17.006;2023-05-28T04:35:33;100770.98;;;14.55;41.78
76819;BME280;65772;51.096;17.006;2023-05-28T04:38:03;100772.73;;;14.57;41.99
76819;BME280;65772;51.096;17.006;2023-05-28T04:40:34;100772.21;;;14.57;42.15
76819;BME280;65772;51.096;17.006;2023-05-28T04:43:05;100769.30;;;14.57;41.93
76819;BME280;65772;51.096;17.006;2023-05-28T04:45:37;100768.77;;;14.57;42.04
76819;BME280;65772;51.096;17.006;2023-05-28T04:48:08;100765.84;;;14.56;42.14
76819;BME280;65772;51.096;17.006;2023-05-28T04:50:38;100768.21;;;14.56;42.33
76819;BME280;65772;51.096;17.006;2023-05-28T04:53:09;100770.97;;;14.55;42.56
76819;BME280;65772;51.096;17.006;2023-05-28T04:55:41;100773.56;;;14.55;42.56
76819;BME280;65772;51.096;17.006;2023-05-28T04:58:12;100772.88;;;14.56;42.45
76819;BME280;65772;51.096;17.006;2023-05-28T05:00:42;100772.05;;;14.58;42.41
76819;BME280;65772;51.096;17.006;2023-05-28T05:03:13;100775.02;;;14.60;42.54
76819;BME280;65772;51.096;17.006;2023-05-28T05:05:44;100776.23;;;14.60;42.54
76819;BME280;65772;51.096;17.006;2023-05-28T05:08:16;100776.08;;;14.61;42.59
76819;BME280;65772;51.096;17.006;2023-05-28T05:10:47;100773.69;;;14.63;43.01
76819;BME280;65772;51.096;17.006;2023-05-28T05:13:18;100777.67;;;14.64;43.11
76819;BME280;65772;51.096;17.006;2023-05-28T05:15:49;100777.39;;;14.67;43.09
76819;BME280;65772;51.096;17.006;2023-05-28T05:18:19;100779.16;;;14.70;42.93
76819;BME280;65772;51.096;17.006;2023-05-28T05:20:49;100776.61;;;14.71;42.83
76819;BME280;65772;51.096;17.006;2023-05-28T05:23:20;100777.14;;;14.72;42.76
76819;BME280;65772;51.096;17.006;2023-05-28T05:25:51;100775.77;;;14.73;42.82
76819;BME280;65772;51.096;17.006;2023-05-28T05:28:22;100778.71;;;14.74;43.08
76819;BME280;65772;51.096;17.006;2023-05-28T05:30:53;100776.70;;;14.77;43.07
76819;BME280;65772;51.096;17.006;2023-05-28T05:33:24;100781.21;;;14.78;42.94
76819;BME280;65772;51.096;17.006;2023-05-28T05:36:23;100774.41;;;14.81;42.95
76819;BME280;65772;51.096;17.006;2023-05-28T05:39:13;100773.05;;;14.82;43.17
76819;BME280;65772;51.096;17.006;2023-05-28T05:42:03;100775.32;;;14.85;43.08
76819;BME280;65772;51.096;17.006;2023-05-28T05:44:40;100774.52;;;14.87;43.42
76819;BME280;65772;51.096;17.006;2023-05-28T05:47:11;100777.32;;;14.90;43.42
76819;BME280;65772;51.096;17.006;2023-05-28T05:49:41;100772.73;;;14.93;43.11
76819;BME280;65772;51.096;17.006;2023-05-28T05:52:12;100771.92;;;14.97;43.22
76819;BME280;65772;51.096;17.006;2023-05-28T05:54:44;100769.61;;;15.01;43.30
76819;BME280;65772;51.096;17.006;2023-05-28T05:57:15;100768.84;;;15.07;42.93
76819;BME280;65772;51.096;17.006;2023-05-28T05:59:45;100766.86;;;15.10;42.76
76819;BME280;65772;51.096;17.006;2023-05-28T06:02:16;100769.14;;;15.13;42.76
76819;BME280;65772;51.096;17.006;2023-05-28T06:04:47;100768.00;;;15.18;42.78
76819;BME280;65772;51.096;17.006;2023-05-28T06:07:37;100764.33;;;15.23;42.60
76819;BME280;65772;51.096;17.006;2023-05-28T06:10:34;100763.17;;;15.27;42.61
76819;BME280;65772;51.096;17.006;2023-05-28T06:13:06;100760.32;;;15.30;42.59
76819;BME280;65772;51.096;17.006;2023-05-28T06:15:37;100762.30;;;15.34;42.68
76819;BME280;65772;51.096;17.006;2023-05-28T06:18:11;100767.84;;;15.38;42.79
76819;BME280;65772;51.096;17.006;2023-05-28T06:20:41;100767.57;;;15.43;42.80
76819;BME280;65772;51.096;17.006;2023-05-28T06:23:12;100765.74;;;15.47;43.07
76819;BME280;65772;51.096;17.006;2023-05-28T06:25:42;100762.52;;;15.50;42.98
76819;BME280;65772;51.096;17.006;2023-05-28T06:28:13;100757.30;;;15.54;42.84
76819;BME280;65772;51.096;17.006;2023-05-28T06:30:45;100757.70;;;15.58;42.81
76819;BME280;65772;51.096;17.006;2023-05-28T06:33:15;100763.59;;;15.61;42.73
76819;BME280;65772;51.096;17.006;2023-05-28T06:35:46;100766.41;;;15.64;42.73
76819;BME280;65772;51.096;17.006;2023-05-28T06:38:17;100769.02;;;15.67;42.77
76819;BME280;65772;51.096;17.006;2023-05-28T06:40:47;100764.61;;;15.71;42.83
76819;BME280;65772;51.096;17.006;2023-05-28T06:43:19;100762.94;;;15.74;42.58
76819;BME280;65772;51.096;17.006;2023-05-28T06:46:09;100760.92;;;15.77;42.49
76819;BME280;65772;51.096;17.006;2023-05-28T06:48:41;100759.56;;;15.80;42.58
76819;BME280;65772;51.096;17.006;2023-05-28T06:51:11;100757.36;;;15.82;42.74
76819;BME280;65772;51.096;17.006;2023-05-28T06:53:42;100761.04;;;15.85;42.78
76819;BME280;65772;51.096;17.006;2023-05-28T06:56:14;100762.13;;;15.88;42.87
76819;BME280;65772;51.096;17.006;2023-05-28T06:58:44;100763.86;;;15.91;42.99
76819;BME280;65772;51.096;17.006;2023-05-28T07:01:39;100764.94;;;15.93;42.88
76819;BME280;65772;51.096;17.006;2023-05-28T07:04:29;100764.48;;;15.98;42.93
76819;BME280;65772;51.096;17.006;2023-05-28T07:07:07;100766.42;;;16.01;42.83
76819;BME280;65772;51.096;17.006;2023-05-28T07:09:37;100766.65;;;16.05;42.86
76819;BME280;65772;51.096;17.006;2023-05-28T07:12:09;100766.89;;;16.08;42.85
76819;BME280;65772;51.096;17.006;2023-05-28T07:14:44;100769.16;;;16.13;42.70
76819;BME280;65772;51.096;17.006;2023-05-28T07:17:15;100769.05;;;16.17;42.60
76819;BME280;65772;51.096;17.006;2023-05-28T07:19:46;100769.09;;;16.21;42.63
76819;BME280;65772;51.096;17.006;2023-05-28T07:22:20;100769.66;;;16.24;42.56
76819;BME280;65772;51.096;17.006;2023-05-28T07:24:51;100764.88;;;16.27;42.54
76819;BME280;65772;51.096;17.006;2023-05-28T07:27:21;100764.06;;;16.30;42.51
76819;BME280;65772;51.096;17.006;2023-05-28T07:29:52;100763.23;;;16.33;42.46
76819;BME280;65772;51.096;17.006;2023-05-28T07:32:23;100764.98;;;16.35;42.26
76819;BME280;65772;51.096;17.006;2023-05-28T07:34:54;100758.48;;;16.38;42.30
76819;BME280;65772;51.096;17.006;2023-05-28T07:37:25;100758.86;;;16.40;42.44
76819;BME280;65772;51.096;17.006;2023-05-28T07:39:55;100755.42;;;16.44;42.40
76819;BME280;65772;51.096;17.006;2023-05-28T07:42:26;100754.44;;;16.47;42.18
76819;BME280;65772;51.096;17.006;2023-05-28T07:45:03;100749.14;;;16.50;42.26
76819;BME280;65772;51.096;17.006;2023-05-28T07:47:34;100746.93;;;16.52;42.13
76819;BME280;65772;51.096;17.006;2023-05-28T07:50:23;100744.16;;;16.53;41.60
76819;BME280;65772;51.096;17.006;2023-05-28T07:53:13;100741.77;;;16.54;41.43
76819;BME280;65772;51.096;17.006;2023-05-28T07:55:45;100741.63;;;16.56;41.65
76819;BME280;65772;51.096;17.006;2023-05-28T07:58:15;100742.70;;;16.59;41.82
76819;BME280;65772;51.096;17.006;2023-05-28T08:00:46;100737.25;;;16.62;41.82
76819;BME280;65772;51.096;17.006;2023-05-28T08:03:17;100734.14;;;16.63;41.60
76819;BME280;65772;51.096;17.006;2023-05-28T08:05:49;100729.52;;;16.66;41.42
76819;BME280;65772;51.096;17.006;2023-05-28T08:08:21;100728.52;;;16.68;41.30
76819;BME280;65772;51.096;17.006;2023-05-28T08:10:52;100728.90;;;16.71;41.35
76819;BME280;65772;51.096;17.006;2023-05-28T08:13:22;100725.46;;;16.74;41.35
76819;BME280;65772;51.096;17.006;2023-05-28T08:15:53;100722.73;;;16.75;40.69
76819;BME280;65772;51.096;17.006;2023-05-28T08:18:25;100725.00;;;16.78;40.68
76819;BME280;65772;51.096;17.006;2023-05-28T08:20:55;100724.85;;;16.81;40.90
76819;BME280;65772;51.096;17.006;2023-05-28T08:23:26;100723.84;;;16.84;41.02
76819;BME280;65772;51.096;17.006;2023-05-28T08:25:56;100718.34;;;16.87;40.58
76819;BME280;65772;51.096;17.006;2023-05-28T08:28:31;100718.39;;;16.90;40.67
76819;BME280;65772;51.096;17.006;2023-05-28T08:31:05;100716.86;;;16.92;40.73
76819;BME280;65772;51.096;17.006;2023-05-28T08:34:05;100712.91;;;16.95;40.89
76819;BME280;65772;51.096;17.006;2023-05-28T08:36:37;100715.70;;;16.99;40.59
76819;BME280;65772;51.096;17.006;2023-05-28T08:39:09;100711.95;;;17.01;40.18
76819;BME280;65772;51.096;17.006;2023-05-28T08:41:39;100706.80;;;17.04;39.98
76819;BME280;65772;51.096;17.006;2023-05-28T08:44:10;100707.15;;;17.05;39.72
76819;BME280;65772;51.096;17.006;2023-05-28T08:46:42;100709.41;;;17.08;39.45
76819;BME280;65772;51.096;17.006;2023-05-28T08:49:39;100712.04;;;17.12;39.43
76819;BME280;65772;51.096;17.006;2023-05-28T08:52:12;100713.80;;;17.15;39.41
76819;BME280;65772;51.096;17.006;2023-05-28T08:54:46;100710.17;;;17.18;39.07
76819;BME280;65772;51.096;17.006;2023-05-28T08:57:18;100706.23;;;17.21;38.57
76819;BME280;65772;51.096;17.006;2023-05-28T08:59:57;100704.02;;;17.24;38.57
76819;BME280;65772;51.096;17.006;2023-05-28T09:02:29;100703.36;;;17.26;38.76
76819;BME280;65772;51.096;17.006;2023-05-28T09:05:00;100700.61;;;17.29;39.29
76819;BME280;65772;51.096;17.006;2023-05-28T09:07:32;100700.47;;;17.33;39.66
76819;BME280;65772;51.096;17.006;2023-05-28T09:10:08;100701.19;;;17.36;39.53
76819;BME280;65772;51.096;17.006;2023-05-28T09:12:41;100699.29;;;17.39;39.24
76819;BME280;65772;51.096;17.006;2023-05-28T09:15:26;100699.48;;;17.41;38.88
76819;BME280;65772;51.096;17.006;2023-05-28T09:17:59;100696.42;;;17.44;39.12
76819;BME280;65772;51.096;17.006;2023-05-28T09:20:30;100696.78;;;17.48;38.35
76819;BME280;65772;51.096;17.006;2023-05-28T09:23:02;100696.79;;;17.50;37.90
76819;BME280;65772;51.096;17.006;2023-05-28T09:26:00;100691.29;;;17.53;38.41
76819;BME280;65772;51.096;17.006;2023-05-28T09:28:42;100686.67;;;17.58;38.79
76819;BME280;65772;51.096;17.006;2023-05-28T09:31:13;100683.42;;;17.62;38.90
76819;BME280;65772;51.096;17.006;2023-05-28T09:33:45;100685.38;;;17.67;39.32
76819;BME280;65772;51.096;17.006;2023-05-28T09:36:19;100685.38;;;17.71;38.47
76819;BME280;65772;51.096;17.006;2023-05-28T09:38:50;100685.41;;;17.75;38.44
76819;BME280;65772;51.096;17.006;2023-05-28T09:41:22;100692.00;;;17.81;38.70
76819;BME280;65772;51.096;17.006;2023-05-28T09:43:58;100687.02;;;17.86;38.40
76819;BME280;65772;51.096;17.006;2023-05-28T09:46:30;100687.23;;;17.90;38.49
76819;BME280;65772;51.096;17.006;2023-05-28T09:49:02;100679.81;;;17.96;38.22
76819;BME280;65772;51.096;17.006;2023-05-28T09:51:34;100678.63;;;18.02;38.12
76819;BME280;65772;51.096;17.006;2023-05-28T09:54:05;100676.58;;;18.06;37.70
76819;BME280;65772;51.096;17.006;2023-05-28T09:56:38;100675.58;;;18.10;37.56
76819;BME280;65772;51.096;17.006;2023-05-28T09:59:13;100673.48;;;18.14;37.06
76819;BME280;65772;51.096;17.006;2023-05-28T10:01:53;100673.69;;;18.17;37.28
76819;BME280;65772;51.096;17.006;2023-05-28T10:04:33;100674.58;;;18.21;37.18
76819;BME280;65772;51.096;17.006;2023-05-28T10:07:03;100677.52;;;18.26;37.29
76819;BME280;65772;51.096;17.006;2023-05-28T10:09:33;100675.98;;;18.29;36.68
76819;BME280;65772;51.096;17.006;2023-05-28T10:12:09;100675.13;;;18.31;36.62
76819;BME280;65772;51.096;17.006;2023-05-28T10:14:42;100670.63;;;18.36;36.90
76819;BME280;65772;51.096;17.006;2023-05-28T10:17:14;100666.15;;;18.39;36.30
76819;BME280;65772;51.096;17.006;2023-05-28T10:19:47;100666.68;;;18.44;36.79
76819;BME280;65772;51.096;17.006;2023-05-28T10:22:18;100664.27;;;18.49;36.76
76819;BME280;65772;51.096;17.006;2023-05-28T10:24:49;100668.27;;;18.53;36.41
76819;BME280;65772;51.096;17.006;2023-05-28T10:27:22;100666.73;;;18.58;36.50
76819;BME280;65772;51.096;17.006;2023-05-28T10:29:58;100662.61;;;18.63;36.17
76819;BME280;65772;51.096;17.006;2023-05-28T10:32:39;100658.10;;;18.68;35.56
76819;BME280;65772;51.096;17.006;2023-05-28T10:35:10;100652.58;;;18.70;35.04
76819;BME280;65772;51.096;17.006;2023-05-28T10:37:41;100646.19;;;18.71;35.09
76819;BME280;65772;51.096;17.006;2023-05-28T10:40:23;100641.34;;;18.76;35.66
76819;BME280;65772;51.096;17.006;2023-05-28T10:42:53;100641.00;;;18.80;35.22
76819;BME280;65772;51.096;17.006;2023-05-28T10:45:35;100633.23;;;18.84;35.69
76819;BME280;65772;51.096;17.006;2023-05-28T10:48:06;100633.56;;;18.90;36.10
76819;BME280;65772;51.096;17.006;2023-05-28T10:50:58;100634.08;;;18.97;35.80
76819;BME280;65772;51.096;17.006;2023-05-28T10:53:30;100633.21;;;19.03;35.15
76819;BME280;65772;51.096;17.006;2023-05-28T10:56:02;100632.52;;;19.06;34.47
76819;BME280;65772;51.096;17.006;2023-05-28T10:58:36;100635.80;;;19.10;33.63
76819;BME280;65772;51.096;17.006;2023-05-28T11:01:20;100633.55;;;19.14;34.21
76819;BME280;65772;51.096;17.006;2023-05-28T11:03:54;100633.36;;;19.19;34.47
76819;BME280;65772;51.096;17.006;2023-05-28T11:06:27;100635.96;;;19.24;34.90
76819;BME280;65772;51.096;17.006;2023-05-28T11:08:58;100633.34;;;19.30;34.68
76819;BME280;65772;51.096;17.006;2023-05-28T11:11:29;100630.07;;;19.36;34.90
76819;BME280;65772;51.096;17.006;2023-05-28T11:14:02;100634.02;;;19.43;34.75
76819;BME280;65772;51.096;17.006;2023-05-28T11:16:32;100637.85;;;19.49;34.82
76819;BME280;65772;51.096;17.006;2023-05-28T11:19:04;100639.23;;;19.55;34.71
76819;BME280;65772;51.096;17.006;2023-05-28T11:21:51;100636.42;;;19.62;34.21
76819;BME280;65772;51.096;17.006;2023-05-28T11:24:22;100634.17;;;19.67;33.07
76819;BME280;65772;51.096;17.006;2023-05-28T11:26:54;100627.92;;;19.70;32.88
76819;BME280;65772;51.096;17.006;2023-05-28T11:29:25;100623.73;;;19.74;33.18
76819;BME280;65772;51.096;17.006;2023-05-28T11:31:56;100622.51;;;19.81;33.47
76819;BME280;65772;51.096;17.006;2023-05-28T11:34:28;100616.77;;;19.87;33.48
76819;BME280;65772;51.096;17.006;2023-05-28T11:37:00;100619.67;;;19.92;33.81
76819;BME280;65772;51.096;17.006;2023-05-28T11:39:30;100618.96;;;19.98;33.35
76819;BME280;65772;51.096;17.006;2023-05-28T11:42:01;100612.87;;;20.03;33.21
76819;BME280;65772;51.096;17.006;2023-05-28T11:44:31;100609.20;;;20.10;33.30
76819;BME280;65772;51.096;17.006;2023-05-28T11:47:02;100601.36;;;20.16;32.99
76819;BME280;65772;51.096;17.006;2023-05-28T11:49:37;100597.19;;;20.21;32.15
76819;BME280;65772;51.096;17.006;2023-05-28T11:52:12;100597.83;;;20.26;32.75
76819;BME280;65772;51.096;17.006;2023-05-28T11:54:44;100595.90;;;20.31;32.39
76819;BME280;65772;51.096;17.006;2023-05-28T11:57:22;100586.34;;;20.35;31.67
76819;BME280;65772;51.096;17.006;2023-05-28T11:59:57;100583.23;;;20.38;31.51
76819;BME280;65772;51.096;17.006;2023-05-28T12:02:28;100581.29;;;20.42;31.07
76819;BME280;65772;51.096;17.006;2023-05-28T12:05:01;100577.79;;;20.45;31.35
76819;BME280;65772;51.096;17.006;2023-05-28T12:07:37;100578.98;;;20.51;32.13
76819;BME280;65772;51.096;17.006;2023-05-28T12:10:12;100577.35;;;20.58;32.02
76819;BME280;65772;51.096;17.006;2023-05-28T12:12:45;100580.77;;;20.64;31.85
76819;BME280;65772;51.096;17.006;2023-05-28T12:15:16;100578.64;;;20.70;32.27
76819;BME280;65772;51.096;17.006;2023-05-28T12:17:53;100579.79;;;20.77;32.02
76819;BME280;65772;51.096;17.006;2023-05-28T12:20:32;100576.97;;;20.83;31.53
76819;BME280;65772;51.096;17.006;2023-05-28T12:23:04;100574.70;;;20.86;30.32
76819;BME280;65772;51.096;17.006;2023-05-28T12:25:49;100575.70;;;20.87;30.56
76819;BME280;65772;51.096;17.006;2023-05-28T12:28:21;100574.80;;;20.92;31.22
76819;BME280;65772;51.096;17.006;2023-05-28T12:30:53;100572.50;;;20.97;31.35
76819;BME280;65772;51.096;17.006;2023-05-28T12:33:25;100569.16;;;21.01;30.76
76819;BME280;65772;51.096;17.006;2023-05-28T12:35:55;100574.33;;;21.05;30.63
76819;BME280;65772;51.096;17.006;2023-05-28T12:38:29;100567.67;;;21.09;30.55
76819;BME280;65772;51.096;17.006;2023-05-28T12:40:59;100567.12;;;21.14;30.78
76819;BME280;65772;51.096;17.006;2023-05-28T12:43:30;100565.34;;;21.21;30.80
76819;BME280;65772;51.096;17.006;2023-05-28T12:46:01;100565.29;;;21.27;30.15
76819;BME280;65772;51.096;17.006;2023-05-28T12:48:31;100562.27;;;21.31;29.69
76819;BME280;65772;51.096;17.006;2023-05-28T12:51:02;100559.27;;;21.38;30.17
76819;BME280;65772;51.096;17.006;2023-05-28T12:53:33;100553.44;;;21.44;29.95
76819;BME280;65772;51.096;17.006;2023-05-28T12:56:04;100554.38;;;21.52;29.98
76819;BME280;65772;51.096;17.006;2023-05-28T12:58:35;100553.63;;;21.59;29.94
76819;BME280;65772;51.096;17.006;2023-05-28T13:01:06;100550.41;;;21.63;29.77
76819;BME280;65772;51.096;17.006;2023-05-28T13:03:37;100551.41;;;21.69;29.71
76819;BME280;65772;51.096;17.006;2023-05-28T13:06:08;100550.30;;;21.73;29.57
76819;BME280;65772;51.096;17.006;2023-05-28T13:08:40;100544.86;;;21.77;29.18